Time;durP1;ratioP1;P1;durP2;ratioP2;P2;SDS_P1;SDS_P2;PMS_P1;PMS_P2;Temp;Humidity;BMP_temperature;BMP_pressure;BME280_temperature;BME280_humidity;BME280_pressure;Samples;Min_cycle;Max_cycle;Signal;HPM_P1;HPM_P2
2021/07/21 00:01:35;;;;;;;8.00;6.30;;;16.30;99.90;;;;;;5091691;28;20193;-69
2021/07/21 00:04:01;;;;;;;7.23;6.30;;;16.20;99.90;;;;;;5091552;28;20940;-69
2021/07/21 00:06:26;;;;;;;8.47;6.33;;;16.10;99.90;;;;;;5078423;28;20412;-68
2021/07/21 00:08:52;;;;;;;8.10;6.20;;;16.00;99.90;;;;;;5071362;28;20650;-68
2021/07/21 00:14:07;;;;;;;9.43;6.13;;;15.90;99.90;;;;;;5071523;28;20632;-68
2021/07/21 00:16:36;;;;;;;9.20;6.00;;;16.00;99.90;;;;;;5071396;28;20907;-70
2021/07/21 00:20:05;;;;;;;8.73;6.33;;;16.00;99.90;;;;;;5071192;28;20426;-69
2021/07/21 00:21:48;;;;;;;7.80;6.50;;;15.90;99.90;;;;;;5071191;28;20442;-68
2021/07/21 00:24:13;;;;;;;8.43;6.43;;;15.90;99.90;;;;;;5071381;28;20543;-69
2021/07/21 00:26:39;;;;;;;10.13;7.20;;;16.00;99.90;;;;;;5071274;28;20172;-69
2021/07/21 00:29:04;;;;;;;6.87;5.83;;;16.00;99.90;;;;;;5071119;28;20195;-70
2021/07/21 00:31:30;;;;;;;7.90;6.27;;;16.00;99.90;;;;;;5071152;28;20693;-68
2021/07/21 00:33:55;;;;;;;9.87;7.40;;;16.00;99.90;;;;;;5071477;28;20163;-68
2021/07/21 00:36:21;;;;;;;10.90;7.60;;;16.00;99.90;;;;;;5071326;28;20621;-70
2021/07/21 00:38:46;;;;;;;8.20;6.57;;;16.00;99.90;;;;;;5071636;28;20178;-69
2021/07/21 00:41:12;;;;;;;9.37;7.40;;;15.90;99.90;;;;;;5071665;28;20172;-69
2021/07/21 00:43:37;;;;;;;7.57;6.37;;;15.90;99.90;;;;;;5071135;28;20168;-70
2021/07/21 00:46:03;;;;;;;8.33;6.97;;;15.80;99.90;;;;;;5071116;28;20615;-69
2021/07/21 00:48:28;;;;;;;9.83;7.17;;;15.80;99.90;;;;;;5073139;28;20171;-68
2021/07/21 00:50:54;;;;;;;10.43;7.27;;;15.80;99.90;;;;;;5074427;28;20203;-69
2021/07/21 00:53:20;;;;;;;12.77;6.90;;;15.80;99.90;;;;;;5074448;28;20168;-69
2021/07/21 00:55:46;;;;;;;7.97;7.17;;;15.90;99.90;;;;;;5074583;28;20892;-69
2021/07/21 00:58:13;;;;;;;11.80;7.13;;;15.80;99.90;;;;;;5074339;28;20759;-69
2021/07/21 01:00:39;;;;;;;9.10;7.40;;;15.90;99.90;;;;;;5074414;28;20421;-69
2021/07/21 01:03:11;;;;;;;8.53;7.40;;;15.90;99.90;;;;;;5074198;28;20416;-68
2021/07/21 01:05:42;;;;;;;9.10;8.07;;;15.90;99.90;;;;;;5073183;28;20296;-69
2021/07/21 01:08:12;;;;;;;9.53;6.70;;;15.80;99.90;;;;;;5074589;28;20407;-69
2021/07/21 01:10:44;;;;;;;8.07;6.97;;;15.90;99.90;;;;;;5074244;28;20425;-69
2021/07/21 01:13:25;;;;;;;10.73;7.30;;;15.80;99.90;;;;;;5074403;28;20423;-69
2021/07/21 01:16:04;;;;;;;10.30;8.27;;;15.80;99.90;;;;;;5074203;28;20405;-68
2021/07/21 01:18:44;;;;;;;8.50;6.87;;;15.80;99.90;;;;;;5074434;28;20404;-68
2021/07/21 01:21:21;;;;;;;11.50;7.57;;;15.80;99.90;;;;;;5074421;28;20798;-68
2021/07/21 01:24:00;;;;;;;10.63;8.37;;;15.70;99.90;;;;;;5074311;28;20469;-69
2021/07/21 01:26:28;;;;;;;10.00;8.50;;;15.70;99.90;;;;;;5074035;28;20396;-68
2021/07/21 01:28:58;;;;;;;9.30;7.70;;;15.70;99.90;;;;;;5073943;28;20416;-68
2021/07/21 01:31:37;;;;;;;10.80;8.40;;;15.60;99.90;;;;;;5073839;28;20436;-69
2021/07/21 01:34:06;;;;;;;11.27;8.00;;;15.60;99.90;;;;;;5073917;28;20483;-69
2021/07/21 01:36:37;;;;;;;10.33;8.87;;;15.60;99.90;;;;;;5073903;28;20443;-69
2021/07/21 01:39:07;;;;;;;12.87;7.93;;;15.60;99.90;;;;;;5073667;28;20416;-69
2021/07/21 01:41:40;;;;;;;11.60;7.80;;;15.50;99.90;;;;;;5073914;28;20773;-69
2021/07/21 01:44:13;;;;;;;10.23;7.53;;;15.40;99.90;;;;;;5073725;28;20488;-68
2021/07/21 01:46:40;;;;;;;11.53;8.00;;;15.40;99.90;;;;;;5073604;28;20411;-70
2021/07/21 01:49:08;;;;;;;8.90;7.73;;;15.40;99.90;;;;;;5073486;28;20459;-69
2021/07/21 01:51:34;;;;;;;10.30;8.00;;;15.30;99.90;;;;;;5073280;28;20856;-69
2021/07/21 01:54:00;;;;;;;11.67;8.83;;;15.30;99.90;;;;;;5073482;28;20405;-69
2021/07/21 01:56:27;;;;;;;9.67;8.70;;;15.30;99.90;;;;;;5073462;28;20174;-69
2021/07/21 01:58:54;;;;;;;10.60;9.30;;;15.40;99.90;;;;;;5073002;28;20604;-70
2021/07/21 02:01:21;;;;;;;10.30;7.87;;;15.40;99.90;;;;;;5073278;28;20492;-69
2021/07/21 02:03:48;;;;;;;11.77;8.97;;;15.30;99.90;;;;;;5073124;28;20436;-68
2021/07/21 02:06:14;;;;;;;12.43;8.17;;;15.30;99.90;;;;;;5073281;28;20443;-70
2021/07/21 02:08:40;;;;;;;13.53;8.70;;;15.30;99.90;;;;;;5073146;28;20444;-69
2021/07/21 02:11:07;;;;;;;10.70;8.23;;;15.10;99.90;;;;;;5073272;28;21054;-69
2021/07/21 02:13:34;;;;;;;14.57;9.00;;;15.10;99.90;;;;;;5073132;28;20491;-70
2021/07/21 02:16:04;;;;;;;11.57;8.30;;;15.20;99.90;;;;;;5073105;28;20432;-71
2021/07/21 02:18:30;;;;;;;11.17;7.60;;;15.10;99.90;;;;;;5073004;28;21138;-68
2021/07/21 02:20:57;;;;;;;9.40;7.47;;;15.10;99.90;;;;;;5072734;28;20429;-68
2021/07/21 02:23:26;;;;;;;11.77;8.57;;;15.20;99.90;;;;;;5072947;28;20404;-69
2021/07/21 02:25:56;;;;;;;10.03;7.87;;;15.20;99.90;;;;;;5072971;28;20811;-71
2021/07/21 02:28:21;;;;;;;9.20;8.00;;;15.20;99.90;;;;;;5072640;28;20480;-68
2021/07/21 02:30:50;;;;;;;8.20;7.30;;;15.10;99.90;;;;;;5072535;28;20519;-69
2021/07/21 02:33:22;;;;;;;10.70;8.50;;;15.10;99.90;;;;;;5072704;28;20250;-69
2021/07/21 02:35:48;;;;;;;10.50;8.00;;;15.20;99.90;;;;;;5072757;28;20911;-69
2021/07/21 02:38:13;;;;;;;9.93;7.87;;;15.20;99.90;;;;;;5072502;28;20408;-69
2021/07/21 02:40:41;;;;;;;9.67;8.20;;;15.20;99.90;;;;;;5072441;28;20304;-70
2021/07/21 02:43:06;;;;;;;11.33;8.27;;;15.10;99.90;;;;;;5072416;28;20163;-69
2021/07/21 02:45:32;;;;;;;9.77;8.77;;;15.20;99.90;;;;;;5072171;28;20408;-70
2021/07/21 02:47:58;;;;;;;11.37;7.80;;;15.30;99.90;;;;;;5072461;28;20170;-69
2021/07/21 02:50:23;;;;;;;11.20;9.10;;;15.30;99.90;;;;;;5072393;28;20443;-69
2021/07/21 02:53:00;;;;;;;10.47;8.53;;;15.30;99.90;;;;;;5072179;28;20194;-71
2021/07/21 02:55:34;;;;;;;10.43;8.30;;;15.30;99.90;;;;;;5072407;28;20172;-70
2021/07/21 02:58:12;;;;;;;11.70;8.47;;;15.30;99.90;;;;;;5072073;28;20389;-70
2021/07/21 03:00:38;;;;;;;12.73;9.00;;;15.30;99.90;;;;;;5072260;28;20823;-70
2021/07/21 03:03:08;;;;;;;13.07;7.83;;;15.30;99.90;;;;;;5072106;28;20417;-70
2021/07/21 03:05:35;;;;;;;11.00;8.93;;;15.40;99.90;;;;;;5072369;28;20162;-70
2021/07/21 03:08:01;;;;;;;11.63;8.87;;;15.30;99.90;;;;;;5072035;28;20401;-69
2021/07/21 03:10:28;;;;;;;14.47;9.13;;;15.40;99.90;;;;;;5071638;28;20841;-69
2021/07/21 03:13:08;;;;;;;12.60;9.10;;;15.40;99.90;;;;;;5071421;28;20452;-72
2021/07/21 03:15:38;;;;;;;9.80;7.67;;;15.40;99.90;;;;;;5071949;28;20426;-68
2021/07/21 03:18:08;;;;;;;8.93;7.40;;;15.40;99.90;;;;;;5072055;28;20405;-70
2021/07/21 03:20:34;;;;;;;11.53;7.80;;;15.40;99.90;;;;;;5072198;28;20429;-70
2021/07/21 03:23:01;;;;;;;9.20;8.30;;;15.40;99.90;;;;;;5072341;28;20437;-69
2021/07/21 03:25:28;;;;;;;10.40;8.13;;;15.40;99.90;;;;;;5072337;28;20162;-70
2021/07/21 03:27:54;;;;;;;9.67;7.53;;;15.50;99.90;;;;;;5071909;28;20446;-70
2021/07/21 03:30:22;;;;;;;8.60;7.60;;;15.50;99.90;;;;;;5072014;28;20428;-70
2021/07/21 03:32:49;;;;;;;9.67;8.07;;;15.50;99.90;;;;;;5071675;28;20448;-70
2021/07/21 03:35:16;;;;;;;9.30;7.93;;;15.50;99.90;;;;;;5072068;28;20443;-70
2021/07/21 03:37:45;;;;;;;10.00;8.20;;;15.50;99.90;;;;;;5071684;28;20491;-68
2021/07/21 03:40:11;;;;;;;11.60;8.80;;;15.60;99.90;;;;;;5071678;28;20416;-70
2021/07/21 03:42:37;;;;;;;9.20;8.30;;;15.60;99.90;;;;;;5071540;28;20795;-69
2021/07/21 03:45:13;;;;;;;11.03;8.07;;;15.60;99.90;;;;;;5071761;28;20409;-69
2021/07/21 03:47:42;;;;;;;8.57;7.67;;;15.70;99.90;;;;;;5071590;28;20840;-69
2021/07/21 03:50:09;;;;;;;9.07;7.80;;;15.70;99.90;;;;;;5071422;28;20955;-69
2021/07/21 03:52:35;;;;;;;9.87;8.33;;;15.70;99.90;;;;;;5071554;28;20477;-70
2021/07/21 03:55:03;;;;;;;9.17;7.67;;;15.70;99.90;;;;;;5071882;28;20401;-70
2021/07/21 03:57:29;;;;;;;7.93;6.67;;;15.70;99.90;;;;;;5071421;28;20970;-69
2021/07/21 03:59:56;;;;;;;9.00;8.10;;;15.70;99.90;;;;;;5071471;28;20589;-70
2021/07/21 04:02:22;;;;;;;8.60;7.70;;;15.80;99.90;;;;;;5071292;28;20402;-69
2021/07/21 04:04:49;;;;;;;8.10;7.17;;;15.80;99.90;;;;;;5071461;28;20746;-69
2021/07/21 04:07:16;;;;;;;12.47;8.33;;;15.80;99.90;;;;;;5071567;28;20709;-69
2021/07/21 04:09:45;;;;;;;10.07;8.93;;;15.80;99.90;;;;;;5071341;28;20522;-69
2021/07/21 04:12:13;;;;;;;11.07;8.60;;;15.80;99.90;;;;;;5071307;28;20477;-69
2021/07/21 04:14:41;;;;;;;10.80;7.73;;;15.80;99.90;;;;;;5071666;28;20408;-69
2021/07/21 04:17:07;;;;;;;9.20;8.23;;;15.80;99.90;;;;;;5071643;28;20404;-69
2021/07/21 04:19:33;;;;;;;11.00;7.83;;;15.80;99.90;;;;;;5071369;28;20490;-69
2021/07/21 04:21:58;;;;;;;11.27;7.20;;;15.90;99.90;;;;;;5071289;28;20181;-68
2021/07/21 04:24:25;;;;;;;10.23;8.43;;;15.90;99.90;;;;;;5074995;28;20934;-70
2021/07/21 04:26:52;;;;;;;9.07;8.17;;;15.90;99.90;;;;;;5075032;28;20175;-69
2021/07/21 04:29:23;;;;;;;8.27;7.40;;;16.00;99.90;;;;;;5075015;28;20425;-70
2021/07/21 04:31:50;;;;;;;8.47;7.10;;;16.00;99.90;;;;;;5074948;28;20444;-69
2021/07/21 04:34:18;;;;;;;9.30;8.30;;;16.00;99.90;;;;;;5075006;28;20409;-71
2021/07/21 04:36:44;;;;;;;8.43;7.13;;;16.00;99.90;;;;;;5078084;28;20404;-69
2021/07/21 04:39:15;;;;;;;9.77;7.83;;;16.10;99.90;;;;;;5094531;28;20508;-71
2021/07/21 04:41:42;;;;;;;13.73;8.87;;;16.10;99.90;;;;;;5094910;28;20419;-71
2021/07/21 04:44:08;;;;;;;11.57;8.10;;;16.10;99.90;;;;;;5094794;28;20930;-71
2021/07/21 04:46:35;;;;;;;10.87;7.63;;;16.20;99.90;;;;;;5095236;28;20404;-69
2021/07/21 04:49:02;;;;;;;10.00;8.73;;;16.20;99.90;;;;;;5094893;28;20212;-70
2021/07/21 04:51:29;;;;;;;10.13;9.00;;;16.10;99.90;;;;;;5094843;28;20439;-70
2021/07/21 04:53:58;;;;;;;9.60;8.37;;;16.20;99.90;;;;;;5094976;28;20401;-69
2021/07/21 04:56:23;;;;;;;10.77;7.90;;;16.20;99.90;;;;;;5094814;28;20483;-69
2021/07/21 04:58:49;;;;;;;7.37;6.60;;;16.20;99.90;;;;;;5094384;28;20444;-69
2021/07/21 05:01:15;;;;;;;9.27;8.27;;;16.30;99.90;;;;;;5094853;28;20195;-69
2021/07/21 05:03:41;;;;;;;8.50;7.53;;;16.30;99.90;;;;;;5094486;28;20214;-70
2021/07/21 05:06:07;;;;;;;8.77;7.40;;;16.30;99.90;;;;;;5094555;28;20456;-69
2021/07/21 05:08:33;;;;;;;10.17;7.83;;;16.40;99.90;;;;;;5094390;28;20232;-71
2021/07/21 05:10:58;;;;;;;9.50;7.40;;;16.40;99.90;;;;;;5094318;28;20205;-68
2021/07/21 05:13:24;;;;;;;10.97;7.17;;;16.40;99.90;;;;;;5094408;28;20173;-69
2021/07/21 05:15:49;;;;;;;8.20;7.40;;;16.70;99.90;;;;;;5094381;28;20169;-69
2021/07/21 05:18:15;;;;;;;10.73;7.07;;;16.80;99.90;;;;;;5094364;28;20170;-68
2021/07/21 05:20:41;;;;;;;9.50;7.60;;;16.90;99.90;;;;;;5094245;28;20676;-68
2021/07/21 05:23:07;;;;;;;11.47;7.20;;;16.90;99.90;;;;;;5094566;28;20166;-68
2021/07/21 05:25:32;;;;;;;9.83;7.27;;;16.80;99.90;;;;;;5094336;28;20626;-68
2021/07/21 05:27:58;;;;;;;8.20;7.30;;;16.80;99.90;;;;;;5094399;28;20470;-68
2021/07/21 05:30:23;;;;;;;9.70;7.13;;;16.80;99.90;;;;;;5094159;28;20195;-69
2021/07/21 05:32:49;;;;;;;7.73;7.00;;;17.00;99.90;;;;;;5093935;28;20199;-68
2021/07/21 05:35:14;;;;;;;7.80;6.63;;;17.20;99.90;;;;;;5093191;28;20175;-68
2021/07/21 05:37:40;;;;;;;7.43;6.70;;;17.40;99.90;;;;;;5093867;28;20166;-68
2021/07/21 05:40:06;;;;;;;9.20;7.03;;;17.40;99.90;;;;;;5093908;28;20194;-70
2021/07/21 05:42:32;;;;;;;9.40;7.37;;;17.40;99.90;;;;;;5093630;28;20168;-69
2021/07/21 05:44:57;;;;;;;8.30;7.30;;;17.30;99.90;;;;;;5093913;28;20402;-68
2021/07/21 05:47:23;;;;;;;8.30;6.93;;;17.50;99.90;;;;;;5094111;28;20176;-69
2021/07/21 05:49:48;;;;;;;7.50;6.30;;;17.80;99.90;;;;;;5093961;28;20196;-69
2021/07/21 05:52:15;;;;;;;7.70;6.90;;;18.00;99.90;;;;;;5093649;28;20195;-69
2021/07/21 05:54:41;;;;;;;9.53;7.80;;;17.90;99.90;;;;;;5093747;28;20157;-69
2021/07/21 05:57:07;;;;;;;8.30;6.77;;;17.70;99.90;;;;;;5093550;28;20452;-69
2021/07/21 05:59:33;;;;;;;10.43;7.70;;;18.00;99.90;;;;;;5093553;28;20203;-68
2021/07/21 06:01:59;;;;;;;8.87;7.27;;;18.00;99.90;;;;;;5092354;28;20778;-69
2021/07/21 06:04:24;;;;;;;7.37;6.43;;;18.40;99.90;;;;;;5093639;28;20434;-70
2021/07/21 06:06:50;;;;;;;10.90;8.37;;;18.50;99.90;;;;;;5093368;28;20227;-70
2021/07/21 06:09:15;;;;;;;8.27;7.10;;;18.30;99.90;;;;;;5093430;28;20189;-70
2021/07/21 06:11:41;;;;;;;8.53;6.77;;;18.30;99.90;;;;;;5093141;28;20246;-69
2021/07/21 06:14:07;;;;;;;10.63;7.60;;;18.60;99.90;;;;;;5093630;28;20246;-70
2021/07/21 06:16:32;;;;;;;8.47;6.23;;;18.60;99.90;;;;;;5093224;28;20173;-69
2021/07/21 06:18:58;;;;;;;8.10;6.20;;;19.00;99.90;;;;;;5093719;28;20219;-69
2021/07/21 06:21:24;;;;;;;7.57;6.73;;;19.50;99.90;;;;;;5093368;28;20179;-70
2021/07/21 06:23:50;;;;;;;11.53;7.10;;;19.90;99.90;;;;;;5093077;28;20192;-69
2021/07/21 06:26:15;;;;;;;7.83;6.43;;;20.30;99.90;;;;;;5091821;28;20405;-69
2021/07/21 06:28:42;;;;;;;10.73;7.07;;;20.40;99.90;;;;;;5093050;28;20195;-70
2021/07/21 06:31:07;;;;;;;7.27;6.00;;;20.80;99.90;;;;;;5092984;28;20279;-72
2021/07/21 06:33:33;;;;;;;6.93;6.13;;;20.90;99.90;;;;;;5093250;28;20445;-69
2021/07/21 06:35:58;;;;;;;7.03;6.10;;;20.60;99.90;;;;;;5093072;28;20165;-69
2021/07/21 06:38:25;;;;;;;6.93;5.97;;;20.90;99.90;;;;;;5092920;28;20186;-69
2021/07/21 06:40:50;;;;;;;6.97;6.23;;;21.40;99.90;;;;;;5092562;28;20215;-70
2021/07/21 06:43:16;;;;;;;7.53;6.13;;;20.60;99.90;;;;;;5093106;28;20423;-70
2021/07/21 06:45:42;;;;;;;7.40;6.37;;;20.80;99.90;;;;;;5092767;28;20540;-70
2021/07/21 06:48:07;;;;;;;6.87;5.90;;;20.80;99.90;;;;;;5092893;28;20175;-69
2021/07/21 06:50:34;;;;;;;6.77;6.07;;;21.40;99.90;;;;;;5092737;28;20428;-69
2021/07/21 06:53:02;;;;;;;7.70;6.40;;;21.60;99.90;;;;;;5092722;28;20196;-69
2021/07/21 06:55:28;;;;;;;6.40;5.80;;;22.30;99.90;;;;;;5092614;28;20435;-70
2021/07/21 06:57:53;;;;;;;6.37;5.50;;;22.10;99.90;;;;;;5092840;28;20430;-69
2021/07/21 07:00:19;;;;;;;6.13;5.53;;;22.70;99.90;;;;;;5092632;28;20187;-70
2021/07/21 07:02:44;;;;;;;6.33;5.60;;;21.90;99.90;;;;;;5092671;28;20187;-70
2021/07/21 07:05:10;;;;;;;5.07;4.57;;;22.70;99.90;;;;;;5092708;28;20710;-68
2021/07/21 07:07:36;;;;;;;7.33;5.60;;;23.40;99.90;;;;;;5092629;28;20176;-69
2021/07/21 07:10:03;;;;;;;5.87;5.20;;;23.70;99.90;;;;;;5092151;28;20510;-69
2021/07/21 07:12:29;;;;;;;5.20;4.70;;;23.40;99.90;;;;;;5092357;28;20204;-72
2021/07/21 07:14:54;;;;;;;5.53;4.50;;;24.10;99.90;;;;;;5092714;28;20494;-70
2021/07/21 07:17:20;;;;;;;6.30;4.73;;;24.50;99.90;;;;;;5092410;28;20167;-69
2021/07/21 07:19:46;;;;;;;6.10;5.60;;;23.90;99.90;;;;;;5092545;28;20679;-70
2021/07/21 07:22:11;;;;;;;7.37;5.10;;;25.80;99.90;;;;;;5093459;28;20415;-72
2021/07/21 07:24:37;;;;;;;7.43;4.73;;;25.00;99.90;;;;;;5093397;28;20177;-72
2021/07/21 07:27:03;;;;;;;5.33;4.83;;;23.80;99.90;;;;;;5092412;28;20252;-69
2021/07/21 07:29:29;;;;;;;5.33;4.87;;;24.00;99.90;;;;;;5089419;28;20186;-73
2021/07/21 07:31:54;;;;;;;5.37;4.47;;;23.90;99.90;;;;;;5090364;28;20494;-68
2021/07/21 07:34:21;;;;;;;7.30;5.00;;;24.40;99.90;;;;;;5092870;28;20176;-68
2021/07/21 07:36:46;;;;;;;6.03;5.30;;;24.60;99.90;;;;;;5092147;28;20255;-69
2021/07/21 07:39:12;;;;;;;7.37;5.70;;;24.20;99.90;;;;;;5092079;28;20535;-70
2021/07/21 07:41:39;;;;;;;7.33;5.63;;;24.20;99.90;;;;;;5092039;28;20231;-69
2021/07/21 07:44:05;;;;;;;15.77;11.10;;;24.70;99.90;;;;;;5091959;28;20433;-72
2021/07/21 07:46:31;;;;;;;9.93;6.77;;;24.70;99.90;;;;;;5093129;28;20493;-69
2021/07/21 07:48:57;;;;;;;6.00;5.50;;;23.90;99.90;;;;;;5091279;28;20897;-70
2021/07/21 07:51:24;;;;;;;7.10;5.37;;;23.70;99.90;;;;;;5091721;28;20203;-70
2021/07/21 07:53:50;;;;;;;6.50;5.90;;;23.30;99.90;;;;;;5092076;28;20178;-71
2021/07/21 07:56:16;;;;;;;7.83;6.80;;;24.00;99.90;;;;;;5091588;28;20418;-69
2021/07/21 07:58:42;;;;;;;28.67;11.60;;;22.80;99.90;;;;;;5081240;28;20538;-70
2021/07/21 08:01:08;;;;;;;6.27;5.73;;;23.00;99.90;;;;;;5075533;28;20227;-68
2021/07/21 08:03:33;;;;;;;7.60;6.30;;;22.90;99.90;;;;;;5078373;28;20717;-69
2021/07/21 08:05:59;;;;;;;6.00;5.37;;;22.60;99.90;;;;;;5095914;28;20961;-68
2021/07/21 08:08:28;;;;;;;8.53;5.80;;;23.10;99.90;;;;;;5095520;28;20168;-68
2021/07/21 08:10:54;;;;;;;7.50;5.97;;;23.00;99.90;;;;;;5095326;28;20442;-69
2021/07/21 08:13:20;;;;;;;7.37;6.77;;;23.40;99.90;;;;;;5075290;28;20417;-69
2021/07/21 08:15:47;;;;;;;6.97;6.27;;;23.70;99.90;;;;;;5075607;28;20179;-70
2021/07/21 08:18:12;;;;;;;6.67;6.07;;;23.40;99.90;;;;;;5075454;28;20428;-73
2021/07/21 08:20:39;;;;;;;6.40;5.80;;;22.90;99.90;;;;;;5079012;28;20956;-68
2021/07/21 08:23:05;;;;;;;6.77;6.17;;;23.10;99.90;;;;;;5095306;28;20168;-69
2021/07/21 08:25:31;;;;;;;5.60;5.10;;;23.20;99.90;;;;;;5078895;28;20914;-69
2021/07/21 08:27:57;;;;;;;7.60;5.63;;;23.60;99.90;;;;;;5075131;28;20498;-69
2021/07/21 08:30:23;;;;;;;6.87;5.80;;;23.30;99.90;;;;;;5085247;28;20272;-68
2021/07/21 08:32:51;;;;;;;6.80;5.00;;;22.10;99.90;;;;;;5095113;28;20438;-70
2021/07/21 08:35:20;;;;;;;6.70;5.60;;;22.40;99.90;;;;;;5095123;28;20404;-69
2021/07/21 08:37:45;;;;;;;5.67;4.93;;;22.60;99.90;;;;;;5094688;28;20406;-68
2021/07/21 08:40:12;;;;;;;7.43;6.20;;;21.50;99.90;;;;;;5094459;28;20433;-69
2021/07/21 08:42:38;;;;;;;6.53;5.50;;;21.90;99.90;;;;;;5094989;28;20174;-68
2021/07/21 08:45:06;;;;;;;8.80;5.30;;;21.80;99.90;;;;;;5095003;28;20395;-68
2021/07/21 08:47:31;;;;;;;8.67;6.00;;;21.30;99.90;;;;;;5094484;28;20185;-72
2021/07/21 08:49:57;;;;;;;6.67;5.60;;;21.40;99.90;;;;;;5094892;28;20961;-68
2021/07/21 08:52:24;;;;;;;5.33;4.83;;;21.40;99.90;;;;;;5094200;28;20207;-71
2021/07/21 08:54:51;;;;;;;7.17;6.37;;;21.20;99.90;;;;;;5094864;28;20402;-69
2021/07/21 08:57:18;;;;;;;5.90;5.27;;;21.90;99.90;;;;;;5095043;28;20405;-68
2021/07/21 08:59:47;;;;;;;5.20;4.30;;;22.10;99.90;;;;;;5094680;28;20427;-68
2021/07/21 09:02:14;;;;;;;6.57;5.00;;;22.00;99.90;;;;;;5093895;28;20413;-69
2021/07/21 09:04:40;;;;;;;5.77;5.17;;;22.30;99.90;;;;;;5094407;28;20446;-69
2021/07/21 09:07:07;;;;;;;5.40;4.90;;;22.30;99.90;;;;;;5094097;28;20410;-70
2021/07/21 09:09:33;;;;;;;5.50;4.47;;;22.10;99.90;;;;;;5094453;28;20438;-70
2021/07/21 09:12:00;;;;;;;5.90;5.30;;;21.10;99.90;;;;;;5094195;28;20436;-70
2021/07/21 09:14:25;;;;;;;8.03;6.00;;;20.80;99.90;;;;;;5094055;28;20479;-70
2021/07/21 09:17:14;;;;;;;10.70;9.00;;;21.10;99.90;;;;;;5094294;28;20413;-72
2021/07/21 09:19:43;;;;;;;12.37;11.07;;;21.60;99.90;;;;;;5094681;28;20202;-72
2021/07/21 09:22:21;;;;;;;4.43;4.03;;;22.00;99.90;;;;;;5095101;28;20412;-72
2021/07/21 09:25:11;;;;;;;20.33;16.90;;;21.80;99.90;;;;;;5094716;28;20654;-70
2021/07/21 09:27:38;;;;;;;4.70;4.23;;;22.20;99.90;;;;;;5095249;28;20410;-70
2021/07/21 09:30:06;;;;;;;5.20;3.73;;;22.70;99.90;;;;;;5095453;28;20859;-71
2021/07/21 09:32:31;;;;;;;3.33;2.70;;;22.30;99.90;;;;;;5096446;28;20443;-69
2021/07/21 09:34:57;;;;;;;4.33;3.33;;;22.80;99.90;;;;;;5097853;28;20403;-69
2021/07/21 09:37:23;;;;;;;5.70;4.90;;;22.00;99.90;;;;;;5097737;28;20692;-69
2021/07/21 09:39:52;;;;;;;7.20;5.93;;;22.90;99.90;;;;;;5097770;28;20852;-70
2021/07/21 09:42:29;;;;;;;7.17;4.27;;;23.10;99.90;;;;;;5096619;28;20178;-70
2021/07/21 09:44:54;;;;;;;3.80;3.30;;;23.60;99.90;;;;;;5096503;28;20400;-70
2021/07/21 09:47:22;;;;;;;3.63;3.33;;;23.40;99.90;;;;;;5095996;28;20425;-72
2021/07/21 09:49:48;;;;;;;3.80;3.20;;;23.20;99.90;;;;;;5092521;28;20742;-70
2021/07/21 09:52:15;;;;;;;3.57;2.50;;;23.40;99.90;;;;;;5074152;28;20455;-69
2021/07/21 09:54:41;;;;;;;3.73;3.13;;;23.00;99.90;;;;;;5072240;28;20994;-70
2021/07/21 09:57:13;;;;;;;4.50;3.00;;;23.30;99.90;;;;;;5073276;28;20404;-69
2021/07/21 09:59:39;;;;;;;7.10;2.83;;;22.80;99.90;;;;;;5073846;28;20182;-69
2021/07/21 10:02:20;;;;;;;3.90;3.13;;;23.00;99.90;;;;;;5073348;28;20424;-69
2021/07/21 10:04:47;;;;;;;2.90;2.60;;;23.90;99.90;;;;;;5073584;28;20213;-71
2021/07/21 10:09:38;;;;;;;3.23;2.40;;;24.10;99.90;;;;;;5073561;28;20914;-68
2021/07/21 10:12:18;;;;;;;3.07;2.70;;;24.00;99.90;;;;;;5073345;28;20198;-69
2021/07/21 10:14:59;;;;;;;3.47;2.73;;;24.50;99.90;;;;;;5073432;28;20219;-68
2021/07/21 10:17:26;;;;;;;3.00;2.60;;;24.60;99.90;;;;;;5073083;28;20851;-68
2021/07/21 10:19:52;;;;;;;2.77;2.50;;;23.30;99.90;;;;;;5072793;28;20428;-68
2021/07/21 10:22:17;;;;;;;3.03;2.63;;;24.00;99.90;;;;;;5072735;28;21138;-68
2021/07/21 10:24:43;;;;;;;3.97;3.57;;;25.00;99.60;;;;;;5072225;28;20169;-70
2021/07/21 10:27:09;;;;;;;2.90;2.50;;;24.10;99.90;;;;;;5072103;28;20216;-71
2021/07/21 10:29:36;;;;;;;3.80;2.70;;;24.00;99.90;;;;;;5072903;28;20427;-70
2021/07/21 10:32:02;;;;;;;3.17;2.40;;;24.20;99.90;;;;;;5072574;28;20982;-70
2021/07/21 10:34:27;;;;;;;3.73;2.57;;;24.60;99.90;;;;;;5072626;28;20446;-70
2021/07/21 10:36:53;;;;;;;4.60;3.10;;;23.40;99.90;;;;;;5071391;28;20183;-70
2021/07/21 10:39:24;;;;;;;3.37;3.07;;;23.80;99.90;;;;;;5072961;28;20189;-69
2021/07/21 10:41:50;;;;;;;3.50;3.20;;;23.20;99.90;;;;;;5073089;28;20411;-69
2021/07/21 10:44:18;;;;;;;2.97;2.50;;;23.80;99.90;;;;;;5072890;28;20412;-69
2021/07/21 10:46:46;;;;;;;2.87;2.63;;;24.30;99.90;;;;;;5071327;28;20786;-69
2021/07/21 10:49:22;;;;;;;2.63;2.43;;;24.30;99.90;;;;;;5072795;28;20942;-69
2021/07/21 10:54:50;;;;;;;2.27;2.10;;;24.40;99.90;;;;;;5073050;28;20420;-71
2021/07/21 11:00:13;;;;;;;3.27;2.37;;;23.70;99.90;;;;;;5073430;28;20425;-71
2021/07/21 11:02:39;;;;;;;2.70;2.50;;;23.60;99.90;;;;;;5072522;28;20517;-71
2021/07/21 11:05:05;;;;;;;2.60;2.20;;;23.90;99.90;;;;;;5072964;28;20442;-71
2021/07/21 11:07:53;;;;;;;2.63;2.43;;;24.10;99.90;;;;;;5072324;28;20480;-71
2021/07/21 11:10:33;;;;;;;3.77;3.37;;;24.30;99.90;;;;;;5072145;28;20428;-71
2021/07/21 11:13:00;;;;;;;2.40;2.20;;;24.30;99.90;;;;;;5072053;28;20451;-71
2021/07/21 11:15:45;;;;;;;3.00;2.30;;;24.70;98.60;;;;;;5072110;28;20884;-71
2021/07/21 11:18:23;;;;;;;2.80;2.60;;;24.70;99.00;;;;;;5071777;28;20404;-71
2021/07/21 11:21:04;;;;;;;2.43;2.20;;;24.60;99.90;;;;;;5072147;28;20941;-71
2021/07/21 11:23:52;;;;;;;3.00;2.17;;;24.80;99.50;;;;;;5071018;28;20918;-71
2021/07/21 11:26:36;;;;;;;3.10;2.73;;;24.70;99.90;;;;;;5072544;28;20901;-71
2021/07/21 11:29:27;;;;;;;6.33;2.37;;;23.80;99.90;;;;;;5073909;28;20416;-71
2021/07/21 11:31:55;;;;;;;1.90;1.80;;;24.10;99.50;;;;;;5072112;28;20456;-70
2021/07/21 11:34:39;;;;;;;2.30;2.10;;;24.60;97.30;;;;;;5072168;28;20408;-71
2021/07/21 11:37:29;;;;;;;2.27;2.03;;;24.50;97.80;;;;;;5071743;28;20812;-70
2021/07/21 11:39:56;;;;;;;2.60;2.40;;;24.20;99.10;;;;;;5071785;28;20429;-70
2021/07/21 11:42:31;;;;;;;6.23;2.80;;;24.30;99.50;;;;;;5072259;28;20502;-70
2021/07/21 11:45:02;;;;;;;2.37;2.17;;;24.00;99.90;;;;;;5072233;28;20404;-71
2021/07/21 11:47:30;;;;;;;2.73;2.30;;;23.80;99.90;;;;;;5072089;28;20504;-71
2021/07/21 11:49:55;;;;;;;4.73;2.80;;;24.00;99.90;;;;;;5071660;28;20452;-71
2021/07/21 11:52:24;;;;;;;4.57;2.77;;;23.90;99.90;;;;;;5072082;28;20451;-71
2021/07/21 11:54:51;;;;;;;2.57;2.10;;;23.70;99.90;;;;;;5071800;28;20260;-71
2021/07/21 11:57:18;;;;;;;3.30;2.80;;;23.50;99.90;;;;;;5071632;28;20919;-71
2021/07/21 11:59:46;;;;;;;8.90;2.87;;;22.80;99.90;;;;;;5071799;28;20508;-71
2021/07/21 12:02:15;;;;;;;2.70;2.50;;;22.80;99.90;;;;;;5071669;28;20500;-71
2021/07/21 12:04:42;;;;;;;3.03;2.70;;;23.20;99.90;;;;;;5071485;28;20419;-71
2021/07/21 12:07:10;;;;;;;4.13;2.57;;;23.40;99.90;;;;;;5070380;28;20421;-71
2021/07/21 12:09:41;;;;;;;2.90;2.70;;;23.30;99.90;;;;;;5071751;28;20426;-71
2021/07/21 12:12:08;;;;;;;3.10;2.50;;;23.00;99.90;;;;;;5072208;28;20805;-71
2021/07/21 12:14:35;;;;;;;3.87;2.97;;;23.40;99.90;;;;;;5071898;28;20439;-71
2021/07/21 12:17:14;;;;;;;2.87;2.67;;;23.30;99.90;;;;;;5071634;28;20411;-71
2021/07/21 12:19:51;;;;;;;2.50;2.20;;;23.20;99.90;;;;;;5071423;28;20456;-71
2021/07/21 12:22:17;;;;;;;1.93;1.77;;;23.40;99.90;;;;;;5071424;28;20402;-70
2021/07/21 12:24:49;;;;;;;2.73;2.53;;;23.30;99.90;;;;;;5071309;28;20508;-71
2021/07/21 12:27:28;;;;;;;2.50;2.10;;;22.80;99.90;;;;;;5071266;28;20401;-70
2021/07/21 12:29:56;;;;;;;2.60;2.40;;;23.10;99.90;;;;;;5071245;28;20914;-70
2021/07/21 12:32:21;;;;;;;3.00;2.03;;;23.00;99.90;;;;;;5071325;28;20458;-70
2021/07/21 12:34:54;;;;;;;2.97;2.67;;;23.10;99.90;;;;;;5071213;28;20404;-70
2021/07/21 12:37:22;;;;;;;2.83;2.60;;;23.00;99.90;;;;;;5071602;28;20172;-70
2021/07/21 12:39:48;;;;;;;3.17;2.50;;;22.90;99.90;;;;;;5071343;28;20901;-70
2021/07/21 12:42:30;;;;;;;2.37;2.17;;;23.00;99.90;;;;;;5071095;28;20405;-71
2021/07/21 12:45:02;;;;;;;2.97;2.67;;;23.30;99.90;;;;;;5072809;28;20503;-71
2021/07/21 12:47:28;;;;;;;2.67;2.47;;;23.20;99.90;;;;;;5074647;28;20522;-71
2021/07/21 12:49:57;;;;;;;4.07;3.00;;;23.30;99.90;;;;;;5074930;28;20432;-71
2021/07/21 12:52:26;;;;;;;3.13;2.57;;;23.00;99.90;;;;;;5074542;28;20454;-71
2021/07/21 12:54:53;;;;;;;4.50;3.23;;;23.30;99.90;;;;;;5073451;28;20400;-70
2021/07/21 12:57:40;;;;;;;3.37;2.90;;;23.20;99.90;;;;;;5074402;28;20410;-71
2021/07/21 13:00:20;;;;;;;6.37;3.20;;;22.70;99.90;;;;;;5074352;28;20428;-70